GEC8262 SBKP-SBEG
Flight info
| Callsign | GEC8262 |
|---|---|
| Flight time | 3h 14m |
| Altitude | 40000 |
| Route | VUPOG UM417 UMGUP DCT IRUMO |
| Aircraft | MD11/H-SDE1E2E3FGHIJ2J3J4J5M1RWXY/LB1D1 |
Departure
| Time | 2026-04-16 12:55 |
|---|---|
| Airport | Viracopos International Airport (SBKP) |
Arrival
| Time | 2026-04-16 16:09 |
|---|---|
| Airport | Eduardo Gomes International Airport (SBEG) |
| Time | Latitude | Longitude | Altitude | Speed | Heading |
|---|---|---|---|---|---|
| 2026-04-16 12:22 | -23.00468 | -47.14482 | 2170 ft | 0 kts | 216° |
| 2026-04-16 12:47 | -23.00457 | -47.14473 | 2160 ft | 4 kts | 216° |
| 2026-04-16 12:48 | -23.00435 | -47.14456 | 2160 ft | 4 kts | 216° |
| 2026-04-16 12:48 | -23.00416 | -47.14440 | 2160 ft | 4 kts | 222° |
| 2026-04-16 12:48 | -23.00402 | -47.14422 | 2160 ft | 4 kts | 263° |
| 2026-04-16 12:48 | -23.00404 | -47.14400 | 2160 ft | 4 kts | 303° |
| 2026-04-16 12:49 | -23.00419 | -47.14379 | 2160 ft | 1 kts | 308° |
| 2026-04-16 12:49 | -23.00422 | -47.14375 | 2160 ft | 0 kts | 308° |
| 2026-04-16 12:52 | -23.00410 | -47.14391 | 2160 ft | 5 kts | 308° |
| 2026-04-16 12:52 | -23.00386 | -47.14424 | 2160 ft | 7 kts | 308° |
| 2026-04-16 12:52 | -23.00342 | -47.14484 | 2162 ft | 13 kts | 308° |
| 2026-04-16 12:52 | -23.00275 | -47.14575 | 2161 ft | 18 kts | 308° |
| 2026-04-16 12:53 | -23.00192 | -47.14691 | 2162 ft | 19 kts | 308° |
| 2026-04-16 12:53 | -23.00108 | -47.14792 | 2160 ft | 17 kts | 330° |
| 2026-04-16 12:53 | -23.00004 | -47.14803 | 2161 ft | 14 kts | 3° |
| 2026-04-16 12:53 | -22.99943 | -47.14780 | 2163 ft | 7 kts | 36° |
| 2026-04-16 12:54 | -22.99902 | -47.14732 | 2163 ft | 11 kts | 57° |
| 2026-04-16 12:54 | -22.99887 | -47.14657 | 2162 ft | 7 kts | 99° |
| 2026-04-16 12:54 | -22.99921 | -47.14592 | 2163 ft | 14 kts | 127° |
| 2026-04-16 12:54 | -23.00123 | -47.14312 | 2161 ft | 92 kts | 128° |
| 2026-04-16 12:55 | -23.00681 | -47.13535 | 2165 ft | 168 kts | 128° |
| 2026-04-16 12:55 | -23.01474 | -47.12443 | 2753 ft | 188 kts | 127° |
| 2026-04-16 12:55 | -23.02088 | -47.11316 | 4049 ft | 175 kts | 106° |
| 2026-04-16 12:55 | -23.02116 | -47.10013 | 4922 ft | 175 kts | 79° |
| 2026-04-16 12:56 | -23.01871 | -47.08657 | 5590 ft | 198 kts | 77° |
| 2026-04-16 12:56 | -23.01554 | -47.07032 | 5761 ft | 244 kts | 76° |
| 2026-04-16 12:56 | -23.01170 | -47.05104 | 5990 ft | 275 kts | 77° |
| 2026-04-16 12:56 | -23.00686 | -47.03071 | 6821 ft | 282 kts | 69° |
| 2026-04-16 12:57 | -22.99657 | -47.01284 | 7139 ft | 282 kts | 45° |
| 2026-04-16 12:57 | -22.98178 | -46.99867 | 7514 ft | 284 kts | 38° |
| 2026-04-16 12:57 | -22.96600 | -46.98556 | 7849 ft | 287 kts | 36° |
| 2026-04-16 12:57 | -22.94994 | -46.97256 | 7957 ft | 289 kts | 36° |
| 2026-04-16 12:58 | -22.93378 | -46.95955 | 7967 ft | 288 kts | 35° |
| 2026-04-16 12:58 | -22.91675 | -46.94892 | 7977 ft | 288 kts | 19° |
| 2026-04-16 12:58 | -22.89729 | -46.94581 | 8999 ft | 284 kts | 356° |
| 2026-04-16 12:58 | -22.87806 | -46.95098 | 9948 ft | 288 kts | 335° |
| 2026-04-16 12:59 | -22.85937 | -46.96122 | 10291 ft | 317 kts | 330° |
| 2026-04-16 12:59 | -22.83935 | -46.97391 | 10416 ft | 349 kts | 328° |
| 2026-04-16 12:59 | -22.81805 | -46.98772 | 10983 ft | 360 kts | 328° |
| 2026-04-16 13:00 | -22.77425 | -47.01564 | 12555 ft | 369 kts | 329° |
| 2026-04-16 13:00 | -22.75183 | -47.02889 | 13327 ft | 374 kts | 331° |
| 2026-04-16 13:00 | -22.72858 | -47.04196 | 14121 ft | 378 kts | 332° |
| 2026-04-16 13:00 | -22.70499 | -47.05493 | 14943 ft | 383 kts | 332° |
| 2026-04-16 13:01 | -22.68111 | -47.06804 | 15724 ft | 389 kts | 332° |
| 2026-04-16 13:01 | -22.65671 | -47.08143 | 16479 ft | 395 kts | 332° |
| 2026-04-16 13:01 | -22.63199 | -47.09500 | 17233 ft | 401 kts | 332° |
| 2026-04-16 13:01 | -22.60696 | -47.10882 | 17965 ft | 407 kts | 332° |
| 2026-04-16 13:02 | -22.58151 | -47.12285 | 18653 ft | 412 kts | 332° |
| 2026-04-16 13:02 | -22.55583 | -47.13695 | 19325 ft | 416 kts | 332° |
| 2026-04-16 13:02 | -22.52985 | -47.15126 | 19985 ft | 419 kts | 332° |
| 2026-04-16 13:02 | -22.50375 | -47.16567 | 20642 ft | 422 kts | 332° |
| 2026-04-16 13:03 | -22.47781 | -47.17996 | 21289 ft | 425 kts | 332° |
| 2026-04-16 13:03 | -22.45138 | -47.19451 | 21961 ft | 428 kts | 332° |
| 2026-04-16 13:03 | -22.42474 | -47.20917 | 22627 ft | 431 kts | 332° |
| 2026-04-16 13:03 | -22.39788 | -47.22389 | 23310 ft | 434 kts | 332° |
| 2026-04-16 13:04 | -22.37077 | -47.23875 | 23947 ft | 438 kts | 332° |
| 2026-04-16 13:04 | -22.34347 | -47.25371 | 24496 ft | 442 kts | 331° |
| 2026-04-16 13:04 | -22.31585 | -47.26887 | 25043 ft | 446 kts | 331° |
| 2026-04-16 13:04 | -22.28804 | -47.28413 | 25623 ft | 450 kts | 331° |
| 2026-04-16 13:05 | -22.26103 | -47.30126 | 26182 ft | 452 kts | 322° |
| 2026-04-16 13:05 | -22.23650 | -47.32251 | 26767 ft | 454 kts | 316° |
| 2026-04-16 13:05 | -22.21335 | -47.34590 | 27359 ft | 457 kts | 314° |
| 2026-04-16 13:05 | -22.19061 | -47.37020 | 27929 ft | 461 kts | 313° |
| 2026-04-16 13:06 | -22.16774 | -47.39479 | 28511 ft | 465 kts | 313° |
| 2026-04-16 13:06 | -22.14492 | -47.41908 | 29080 ft | 469 kts | 314° |
| 2026-04-16 13:06 | -22.12144 | -47.44371 | 29642 ft | 473 kts | 314° |
| 2026-04-16 13:06 | -22.09757 | -47.46848 | 30185 ft | 477 kts | 314° |
| 2026-04-16 13:07 | -22.07347 | -47.49332 | 30685 ft | 479 kts | 314° |
| 2026-04-16 13:07 | -22.04939 | -47.51804 | 31334 ft | 477 kts | 314° |
| 2026-04-16 13:07 | -22.02544 | -47.54259 | 32030 ft | 473 kts | 314° |
| 2026-04-16 13:07 | -22.00168 | -47.56693 | 32719 ft | 470 kts | 314° |
| 2026-04-16 13:08 | -21.97811 | -47.59108 | 33373 ft | 466 kts | 314° |
| 2026-04-16 13:08 | -21.95466 | -47.61511 | 34007 ft | 463 kts | 314° |
| 2026-04-16 13:08 | -21.93921 | -47.63095 | 34353 ft | 462 kts | 314° |
| 2026-04-16 13:08 | -21.91594 | -47.65479 | 34825 ft | 461 kts | 314° |
| 2026-04-16 13:09 | -21.89278 | -47.67851 | 35264 ft | 460 kts | 314° |
| 2026-04-16 13:09 | -21.86957 | -47.70227 | 35689 ft | 459 kts | 314° |
| 2026-04-16 13:09 | -21.84648 | -47.72590 | 36102 ft | 459 kts | 314° |
| 2026-04-16 13:09 | -21.82331 | -47.74959 | 36510 ft | 458 kts | 314° |
| 2026-04-16 13:10 | -21.80022 | -47.77319 | 36898 ft | 458 kts | 314° |
| 2026-04-16 13:10 | -21.77715 | -47.79677 | 37291 ft | 457 kts | 314° |
| 2026-04-16 13:10 | -21.75411 | -47.82030 | 37622 ft | 457 kts | 314° |
| 2026-04-16 13:10 | -21.73100 | -47.84388 | 37974 ft | 458 kts | 314° |
| 2026-04-16 13:11 | -21.70789 | -47.86746 | 38331 ft | 457 kts | 314° |
| 2026-04-16 13:11 | -21.68475 | -47.89105 | 38683 ft | 457 kts | 314° |
| 2026-04-16 13:11 | -21.66173 | -47.91452 | 38971 ft | 456 kts | 313° |
| 2026-04-16 13:11 | -21.63862 | -47.93798 | 39269 ft | 455 kts | 313° |
| 2026-04-16 13:12 | -21.61595 | -47.96098 | 39550 ft | 454 kts | 313° |
| 2026-04-16 13:12 | -21.59292 | -47.98435 | 39830 ft | 453 kts | 313° |
| 2026-04-16 13:12 | -21.56997 | -48.00767 | 39993 ft | 455 kts | 313° |
| 2026-04-16 13:13 | -21.52392 | -48.05448 | 40036 ft | 456 kts | 313° |
| 2026-04-16 13:13 | -21.47778 | -48.10135 | 40039 ft | 456 kts | 313° |
| 2026-04-16 13:14 | -21.43164 | -48.14817 | 40039 ft | 456 kts | 313° |
| 2026-04-16 13:14 | -21.38573 | -48.19473 | 40036 ft | 457 kts | 313° |
| 2026-04-16 13:15 | -21.33948 | -48.24157 | 40035 ft | 457 kts | 313° |
| 2026-04-16 13:15 | -21.29322 | -48.28838 | 40034 ft | 457 kts | 313° |
| 2026-04-16 13:16 | -21.24693 | -48.33519 | 40035 ft | 457 kts | 313° |
| 2026-04-16 13:16 | -21.20092 | -48.38167 | 40031 ft | 458 kts | 313° |
| 2026-04-16 13:17 | -21.15446 | -48.42856 | 40029 ft | 458 kts | 313° |
| 2026-04-16 13:17 | -21.10807 | -48.47533 | 40029 ft | 457 kts | 313° |
| 2026-04-16 13:18 | -21.06167 | -48.52207 | 40026 ft | 457 kts | 313° |
| 2026-04-16 13:18 | -21.01520 | -48.56872 | 40021 ft | 458 kts | 314° |
| 2026-04-16 13:19 | -20.96888 | -48.61519 | 40022 ft | 459 kts | 314° |
| 2026-04-16 13:19 | -20.92231 | -48.66194 | 40022 ft | 459 kts | 314° |
| 2026-04-16 13:20 | -20.87580 | -48.70863 | 40019 ft | 458 kts | 314° |
| 2026-04-16 13:20 | -20.82930 | -48.75527 | 40016 ft | 458 kts | 314° |
| 2026-04-16 13:21 | -20.78052 | -48.79945 | 40019 ft | 462 kts | 320° |
| 2026-04-16 13:21 | -20.72797 | -48.83922 | 40017 ft | 463 kts | 322° |
| 2026-04-16 13:22 | -20.67501 | -48.87834 | 40015 ft | 463 kts | 322° |
| 2026-04-16 13:22 | -20.62225 | -48.91780 | 40011 ft | 463 kts | 322° |
| 2026-04-16 13:23 | -20.56944 | -48.95756 | 40015 ft | 464 kts | 322° |
| 2026-04-16 13:23 | -20.51704 | -48.99704 | 40012 ft | 464 kts | 322° |
| 2026-04-16 13:24 | -20.46423 | -49.03678 | 40012 ft | 464 kts | 322° |
| 2026-04-16 13:24 | -20.41143 | -49.07647 | 40008 ft | 465 kts | 322° |
| 2026-04-16 13:25 | -20.35840 | -49.11630 | 40012 ft | 464 kts | 322° |
| 2026-04-16 13:25 | -20.30557 | -49.15594 | 40010 ft | 464 kts | 322° |
| 2026-04-16 13:26 | -20.25304 | -49.19532 | 40003 ft | 464 kts | 322° |
| 2026-04-16 13:26 | -20.20020 | -49.23490 | 40003 ft | 465 kts | 322° |
| 2026-04-16 13:27 | -20.14718 | -49.27459 | 40001 ft | 466 kts | 322° |
| 2026-04-16 13:27 | -20.09405 | -49.31425 | 40001 ft | 466 kts | 322° |
| 2026-04-16 13:28 | -20.04093 | -49.35384 | 40002 ft | 466 kts | 322° |
| 2026-04-16 13:28 | -19.98773 | -49.39353 | 39999 ft | 467 kts | 322° |
| 2026-04-16 13:29 | -19.93449 | -49.43324 | 40001 ft | 468 kts | 322° |
| 2026-04-16 13:29 | -19.88146 | -49.47277 | 40001 ft | 468 kts | 322° |
| 2026-04-16 13:30 | -19.82815 | -49.51247 | 40001 ft | 468 kts | 322° |
| 2026-04-16 13:30 | -19.77488 | -49.55210 | 40000 ft | 467 kts | 321° |
| 2026-04-16 13:31 | -19.72166 | -49.59166 | 39994 ft | 467 kts | 321° |
| 2026-04-16 13:31 | -19.66846 | -49.63118 | 39996 ft | 466 kts | 321° |
| 2026-04-16 13:32 | -19.61530 | -49.67063 | 39999 ft | 466 kts | 321° |
| 2026-04-16 13:32 | -19.56208 | -49.71011 | 39995 ft | 467 kts | 321° |
| 2026-04-16 13:33 | -19.50868 | -49.74967 | 39995 ft | 468 kts | 321° |
| 2026-04-16 13:33 | -19.45539 | -49.78912 | 39996 ft | 466 kts | 321° |
| 2026-04-16 13:34 | -19.40216 | -49.82841 | 39997 ft | 466 kts | 321° |
| 2026-04-16 13:34 | -19.34920 | -49.86747 | 39994 ft | 467 kts | 321° |
| 2026-04-16 13:35 | -19.29573 | -49.90675 | 39993 ft | 468 kts | 322° |
| 2026-04-16 13:35 | -19.24217 | -49.94602 | 39994 ft | 468 kts | 322° |
| 2026-04-16 13:36 | -19.18867 | -49.98523 | 39986 ft | 467 kts | 322° |
| 2026-04-16 13:36 | -19.13524 | -50.02436 | 39986 ft | 467 kts | 322° |
| 2026-04-16 13:37 | -19.08168 | -50.06357 | 39988 ft | 468 kts | 322° |
| 2026-04-16 13:37 | -19.02813 | -50.10273 | 39988 ft | 468 kts | 322° |
| 2026-04-16 13:38 | -18.97494 | -50.14159 | 39988 ft | 468 kts | 322° |
| 2026-04-16 13:38 | -18.92135 | -50.18072 | 39983 ft | 468 kts | 322° |
| 2026-04-16 13:39 | -18.86769 | -50.21987 | 39981 ft | 469 kts | 322° |
| 2026-04-16 13:39 | -18.81407 | -50.25895 | 39982 ft | 468 kts | 322° |
| 2026-04-16 13:40 | -18.76037 | -50.29807 | 39982 ft | 468 kts | 322° |
| 2026-04-16 13:40 | -18.70656 | -50.33724 | 39981 ft | 468 kts | 322° |
| 2026-04-16 13:41 | -18.65319 | -50.37603 | 39988 ft | 469 kts | 322° |
| 2026-04-16 13:41 | -18.59934 | -50.41506 | 39988 ft | 469 kts | 322° |
| 2026-04-16 13:42 | -18.54555 | -50.45406 | 39985 ft | 469 kts | 322° |
| 2026-04-16 13:42 | -18.49183 | -50.49303 | 39987 ft | 469 kts | 322° |
| 2026-04-16 13:43 | -18.43807 | -50.53197 | 39993 ft | 469 kts | 322° |
| 2026-04-16 13:43 | -18.38426 | -50.57090 | 39994 ft | 469 kts | 322° |
| 2026-04-16 13:44 | -18.33082 | -50.60955 | 39993 ft | 469 kts | 322° |
| 2026-04-16 13:44 | -18.27699 | -50.64846 | 39994 ft | 469 kts | 322° |
| 2026-04-16 13:45 | -18.22322 | -50.68729 | 39997 ft | 468 kts | 322° |
| 2026-04-16 13:45 | -18.16961 | -50.72598 | 39998 ft | 467 kts | 322° |
| 2026-04-16 13:46 | -18.11596 | -50.76467 | 39998 ft | 467 kts | 322° |
| 2026-04-16 13:46 | -18.06266 | -50.80307 | 39999 ft | 467 kts | 322° |
| 2026-04-16 13:47 | -18.00903 | -50.84169 | 39996 ft | 468 kts | 322° |
| 2026-04-16 13:47 | -17.95535 | -50.88031 | 39998 ft | 468 kts | 322° |
| 2026-04-16 13:48 | -17.90170 | -50.91888 | 40002 ft | 466 kts | 322° |
| 2026-04-16 13:48 | -17.84811 | -50.95731 | 40002 ft | 466 kts | 322° |
| 2026-04-16 13:49 | -17.79447 | -50.99574 | 39998 ft | 466 kts | 322° |
| 2026-04-16 13:49 | -17.74080 | -51.03421 | 40001 ft | 467 kts | 322° |
| 2026-04-16 13:50 | -17.68739 | -51.07248 | 40004 ft | 467 kts | 322° |
| 2026-04-16 13:50 | -17.63365 | -51.11096 | 40003 ft | 467 kts | 322° |
| 2026-04-16 13:51 | -17.58002 | -51.14934 | 40000 ft | 467 kts | 322° |
| 2026-04-16 13:51 | -17.52628 | -51.18776 | 40001 ft | 467 kts | 322° |
| 2026-04-16 13:52 | -17.47263 | -51.22609 | 40000 ft | 467 kts | 322° |
| 2026-04-16 13:52 | -17.41890 | -51.26446 | 40000 ft | 467 kts | 322° |
| 2026-04-16 13:53 | -17.36523 | -51.30274 | 40001 ft | 467 kts | 322° |
| 2026-04-16 13:53 | -17.31184 | -51.34079 | 39997 ft | 467 kts | 322° |
| 2026-04-16 13:54 | -17.25813 | -51.37909 | 40006 ft | 467 kts | 322° |
| 2026-04-16 13:54 | -17.21353 | -51.41089 | 39995 ft | 466 kts | 322° |
| 2026-04-16 13:55 | -17.15974 | -51.44923 | 40013 ft | 466 kts | 322° |
| 2026-04-16 13:55 | -17.09742 | -51.49362 | 39990 ft | 467 kts | 322° |
| 2026-04-16 13:56 | -17.05240 | -51.52566 | 39984 ft | 468 kts | 322° |
| 2026-04-16 13:56 | -16.99851 | -51.56399 | 39996 ft | 469 kts | 322° |
| 2026-04-16 13:57 | -16.94460 | -51.60229 | 39982 ft | 468 kts | 322° |
| 2026-04-16 13:57 | -16.89102 | -51.64034 | 39999 ft | 469 kts | 322° |
| 2026-04-16 13:58 | -16.80998 | -51.69782 | 39996 ft | 469 kts | 323° |
| 2026-04-16 13:58 | -16.75590 | -51.73606 | 39992 ft | 469 kts | 323° |
| 2026-04-16 13:59 | -16.70179 | -51.77433 | 39979 ft | 469 kts | 323° |
| 2026-04-16 13:59 | -16.64802 | -51.81235 | 39987 ft | 469 kts | 323° |
| 2026-04-16 14:00 | -16.59400 | -51.85053 | 39984 ft | 468 kts | 323° |
| 2026-04-16 14:00 | -16.53999 | -51.88868 | 39985 ft | 468 kts | 323° |
| 2026-04-16 14:01 | -16.48608 | -51.92674 | 39979 ft | 468 kts | 323° |
| 2026-04-16 14:01 | -16.43216 | -51.96477 | 39980 ft | 468 kts | 323° |
| 2026-04-16 14:02 | -16.37822 | -52.00279 | 39976 ft | 468 kts | 323° |
| 2026-04-16 14:02 | -16.32426 | -52.04080 | 39969 ft | 468 kts | 323° |
| 2026-04-16 14:03 | -16.27036 | -52.07820 | 39972 ft | 468 kts | 323° |
| 2026-04-16 14:03 | -16.21558 | -52.11537 | 39972 ft | 468 kts | 324° |
| 2026-04-16 14:04 | -16.16092 | -52.15237 | 39968 ft | 468 kts | 324° |
| 2026-04-16 14:04 | -16.10663 | -52.18918 | 39972 ft | 468 kts | 324° |
| 2026-04-16 14:05 | -16.05209 | -52.22616 | 39967 ft | 468 kts | 324° |
| 2026-04-16 14:05 | -15.99746 | -52.26319 | 39969 ft | 468 kts | 324° |
| 2026-04-16 14:06 | -15.94290 | -52.30014 | 39968 ft | 467 kts | 324° |
| 2026-04-16 14:06 | -15.88840 | -52.33703 | 39963 ft | 467 kts | 324° |
| 2026-04-16 14:07 | -15.83395 | -52.37386 | 39967 ft | 467 kts | 324° |
| 2026-04-16 14:07 | -15.77947 | -52.41068 | 39963 ft | 467 kts | 324° |
| 2026-04-16 14:08 | -15.72540 | -52.44720 | 39963 ft | 467 kts | 324° |
| 2026-04-16 14:08 | -15.67100 | -52.48393 | 39966 ft | 467 kts | 324° |
| 2026-04-16 14:09 | -15.61656 | -52.52065 | 39969 ft | 466 kts | 324° |
| 2026-04-16 14:09 | -15.56217 | -52.55726 | 39965 ft | 465 kts | 324° |
| 2026-04-16 14:10 | -15.50783 | -52.59381 | 39975 ft | 465 kts | 324° |
| 2026-04-16 14:10 | -15.45347 | -52.63039 | 39974 ft | 465 kts | 324° |
| 2026-04-16 14:11 | -15.39943 | -52.66676 | 39963 ft | 465 kts | 324° |
| 2026-04-16 14:11 | -15.34507 | -52.70331 | 39972 ft | 465 kts | 324° |
| 2026-04-16 14:12 | -15.29082 | -52.73976 | 39969 ft | 465 kts | 324° |
| 2026-04-16 14:12 | -15.23651 | -52.77625 | 39967 ft | 465 kts | 324° |
| 2026-04-16 14:13 | -15.18225 | -52.81266 | 39971 ft | 464 kts | 324° |
| 2026-04-16 14:13 | -15.12834 | -52.84882 | 39971 ft | 464 kts | 324° |
| 2026-04-16 14:14 | -15.07409 | -52.88519 | 39963 ft | 464 kts | 324° |
| 2026-04-16 14:14 | -15.01988 | -52.92151 | 39961 ft | 464 kts | 324° |
| 2026-04-16 14:15 | -14.96559 | -52.95785 | 39958 ft | 464 kts | 324° |
| 2026-04-16 14:15 | -14.91162 | -52.99396 | 39966 ft | 464 kts | 324° |
| 2026-04-16 14:16 | -14.85716 | -53.03038 | 39961 ft | 467 kts | 325° |
| 2026-04-16 14:16 | -14.80142 | -53.06550 | 39968 ft | 469 kts | 328° |
| 2026-04-16 14:17 | -14.74461 | -53.09883 | 39965 ft | 469 kts | 328° |
| 2026-04-16 14:17 | -14.68775 | -53.13198 | 39969 ft | 469 kts | 328° |
| 2026-04-16 14:18 | -14.63131 | -53.16508 | 39968 ft | 470 kts | 328° |
| 2026-04-16 14:18 | -14.57438 | -53.19854 | 39967 ft | 470 kts | 328° |
| 2026-04-16 14:19 | -14.51748 | -53.23200 | 39969 ft | 470 kts | 328° |
| 2026-04-16 14:19 | -14.46057 | -53.26542 | 39965 ft | 470 kts | 328° |
| 2026-04-16 14:20 | -14.40369 | -53.29881 | 39962 ft | 470 kts | 328° |
| 2026-04-16 14:20 | -14.34678 | -53.33219 | 39964 ft | 469 kts | 328° |
| 2026-04-16 14:21 | -14.29007 | -53.36543 | 39965 ft | 469 kts | 328° |
| 2026-04-16 14:21 | -14.23363 | -53.39850 | 39964 ft | 469 kts | 328° |
| 2026-04-16 14:22 | -14.17689 | -53.43173 | 39961 ft | 469 kts | 328° |
| 2026-04-16 14:22 | -14.12012 | -53.46495 | 39956 ft | 469 kts | 328° |
| 2026-04-16 14:23 | -14.06323 | -53.49817 | 39956 ft | 469 kts | 328° |
| 2026-04-16 14:23 | -14.00635 | -53.53137 | 39957 ft | 469 kts | 328° |
| 2026-04-16 14:24 | -13.94948 | -53.56459 | 39957 ft | 469 kts | 328° |
| 2026-04-16 14:24 | -13.89300 | -53.59747 | 39956 ft | 469 kts | 328° |
| 2026-04-16 14:25 | -13.83604 | -53.63051 | 39954 ft | 470 kts | 328° |
| 2026-04-16 14:25 | -13.77899 | -53.66359 | 39954 ft | 470 kts | 328° |
| 2026-04-16 14:26 | -13.72195 | -53.69665 | 39954 ft | 470 kts | 328° |
| 2026-04-16 14:26 | -13.66492 | -53.72969 | 39959 ft | 470 kts | 328° |
| 2026-04-16 14:27 | -13.60821 | -53.76253 | 39953 ft | 470 kts | 328° |
| 2026-04-16 14:27 | -13.55103 | -53.79563 | 39956 ft | 471 kts | 328° |
| 2026-04-16 14:28 | -13.49391 | -53.82867 | 39952 ft | 471 kts | 328° |
| 2026-04-16 14:28 | -13.43674 | -53.86172 | 39949 ft | 471 kts | 328° |
| 2026-04-16 14:29 | -13.37948 | -53.89480 | 39952 ft | 471 kts | 329° |
| 2026-04-16 14:29 | -13.32226 | -53.92784 | 39949 ft | 471 kts | 329° |
| 2026-04-16 14:30 | -13.26505 | -53.96086 | 39951 ft | 472 kts | 329° |
| 2026-04-16 14:30 | -13.20779 | -53.99389 | 39950 ft | 472 kts | 329° |
| 2026-04-16 14:31 | -13.15089 | -54.02664 | 39947 ft | 472 kts | 329° |
| 2026-04-16 14:31 | -13.09352 | -54.05966 | 39947 ft | 471 kts | 329° |
| 2026-04-16 14:32 | -13.03627 | -54.09262 | 39941 ft | 472 kts | 329° |
| 2026-04-16 14:32 | -12.97899 | -54.12559 | 39943 ft | 472 kts | 329° |
| 2026-04-16 14:33 | -12.92170 | -54.15852 | 39947 ft | 472 kts | 329° |
| 2026-04-16 14:33 | -12.86471 | -54.19125 | 39947 ft | 472 kts | 329° |
| 2026-04-16 14:34 | -12.80733 | -54.22419 | 39944 ft | 472 kts | 329° |
| 2026-04-16 14:34 | -12.74989 | -54.25715 | 39943 ft | 473 kts | 329° |
| 2026-04-16 14:35 | -12.69271 | -54.28995 | 39942 ft | 473 kts | 329° |
| 2026-04-16 14:35 | -12.63528 | -54.32287 | 39944 ft | 473 kts | 329° |
| 2026-04-16 14:36 | -12.57782 | -54.35578 | 39940 ft | 473 kts | 329° |
| 2026-04-16 14:36 | -12.52038 | -54.38868 | 39942 ft | 473 kts | 329° |
| 2026-04-16 14:37 | -12.46291 | -54.42158 | 39944 ft | 473 kts | 329° |
| 2026-04-16 14:37 | -12.40543 | -54.45448 | 39943 ft | 473 kts | 329° |
| 2026-04-16 14:38 | -12.34779 | -54.48744 | 39942 ft | 473 kts | 329° |
| 2026-04-16 14:38 | -12.29070 | -54.52008 | 39942 ft | 473 kts | 329° |
| 2026-04-16 14:39 | -12.23291 | -54.55308 | 39943 ft | 473 kts | 329° |
| 2026-04-16 14:39 | -12.17575 | -54.58571 | 39942 ft | 473 kts | 329° |
| 2026-04-16 14:40 | -12.11811 | -54.61862 | 39944 ft | 473 kts | 329° |
| 2026-04-16 14:40 | -12.06052 | -54.65148 | 39944 ft | 473 kts | 329° |
| 2026-04-16 14:41 | -12.00303 | -54.68427 | 39943 ft | 473 kts | 329° |
| 2026-04-16 14:41 | -11.95522 | -54.71152 | 39938 ft | 474 kts | 329° |
| 2026-04-16 14:42 | -11.89758 | -54.74437 | 39946 ft | 474 kts | 329° |
| 2026-04-16 14:42 | -11.83996 | -54.77719 | 39943 ft | 474 kts | 329° |
| 2026-04-16 14:43 | -11.78238 | -54.80996 | 39944 ft | 474 kts | 329° |
| 2026-04-16 14:43 | -11.72484 | -54.84270 | 39944 ft | 474 kts | 329° |
| 2026-04-16 14:44 | -11.66720 | -54.87548 | 39944 ft | 474 kts | 329° |
| 2026-04-16 14:44 | -11.60992 | -54.90804 | 39944 ft | 474 kts | 329° |
| 2026-04-16 14:45 | -11.55223 | -54.94081 | 39942 ft | 474 kts | 329° |
| 2026-04-16 14:45 | -11.49451 | -54.97354 | 39945 ft | 474 kts | 329° |
| 2026-04-16 14:46 | -11.43673 | -55.00631 | 39944 ft | 474 kts | 329° |
| 2026-04-16 14:46 | -11.37951 | -55.03877 | 39943 ft | 474 kts | 329° |
| 2026-04-16 14:47 | -11.32186 | -55.07147 | 39942 ft | 474 kts | 329° |
| 2026-04-16 14:47 | -11.26417 | -55.10417 | 39942 ft | 474 kts | 329° |
| 2026-04-16 14:48 | -11.20681 | -55.13667 | 39943 ft | 474 kts | 329° |
| 2026-04-16 14:48 | -11.14919 | -55.16930 | 39943 ft | 474 kts | 329° |
| 2026-04-16 14:49 | -11.09144 | -55.20204 | 39943 ft | 475 kts | 329° |
| 2026-04-16 14:49 | -11.03364 | -55.23475 | 39944 ft | 475 kts | 329° |
| 2026-04-16 14:50 | -10.97580 | -55.26737 | 39942 ft | 475 kts | 329° |
| 2026-04-16 14:50 | -10.91801 | -55.29997 | 39942 ft | 474 kts | 329° |
| 2026-04-16 14:51 | -10.86040 | -55.33250 | 39939 ft | 474 kts | 329° |
| 2026-04-16 14:51 | -10.80305 | -55.36495 | 39940 ft | 475 kts | 329° |
| 2026-04-16 14:53 | -10.57174 | -55.49530 | 39941 ft | 474 kts | 329° |
| 2026-04-16 14:54 | -10.51388 | -55.52790 | 39938 ft | 475 kts | 329° |
| 2026-04-16 14:54 | -10.45637 | -55.56027 | 39938 ft | 475 kts | 329° |
| 2026-04-16 14:55 | -10.39848 | -55.59284 | 39939 ft | 475 kts | 329° |
| 2026-04-16 14:55 | -10.34053 | -55.62544 | 39936 ft | 475 kts | 329° |
| 2026-04-16 14:56 | -10.28255 | -55.65800 | 39936 ft | 476 kts | 329° |
| 2026-04-16 14:56 | -10.22457 | -55.69056 | 39936 ft | 476 kts | 329° |
| 2026-04-16 14:57 | -10.16650 | -55.72317 | 39935 ft | 476 kts | 329° |
| 2026-04-16 14:57 | -10.10878 | -55.75558 | 39936 ft | 476 kts | 329° |
| 2026-04-16 14:58 | -10.02167 | -55.80448 | 39938 ft | 476 kts | 329° |
| 2026-04-16 14:59 | -9.96373 | -55.83704 | 39944 ft | 476 kts | 329° |
| 2026-04-16 14:59 | -9.90603 | -55.86943 | 39948 ft | 477 kts | 329° |
| 2026-04-16 15:00 | -9.84790 | -55.90197 | 39950 ft | 477 kts | 329° |
| 2026-04-16 15:00 | -9.78975 | -55.93453 | 39936 ft | 477 kts | 329° |
| 2026-04-16 15:01 | -9.73153 | -55.96715 | 39935 ft | 477 kts | 329° |
| 2026-04-16 15:01 | -9.67341 | -55.99954 | 39935 ft | 477 kts | 330° |
| 2026-04-16 15:02 | -9.61501 | -56.03162 | 39938 ft | 477 kts | 330° |
| 2026-04-16 15:02 | -9.55662 | -56.06362 | 39936 ft | 477 kts | 330° |
| 2026-04-16 15:03 | -9.49852 | -56.09548 | 39934 ft | 477 kts | 330° |
| 2026-04-16 15:03 | -9.44015 | -56.12749 | 39937 ft | 477 kts | 330° |
| 2026-04-16 15:04 | -9.38164 | -56.15958 | 39935 ft | 478 kts | 330° |
| 2026-04-16 15:04 | -9.32312 | -56.19165 | 39935 ft | 478 kts | 330° |
| 2026-04-16 15:05 | -9.26491 | -56.22354 | 39932 ft | 478 kts | 330° |
| 2026-04-16 15:05 | -9.20633 | -56.25563 | 39933 ft | 478 kts | 330° |
| 2026-04-16 15:06 | -9.14774 | -56.28771 | 39936 ft | 478 kts | 330° |
| 2026-04-16 15:06 | -9.08917 | -56.31976 | 39932 ft | 477 kts | 330° |
| 2026-04-16 15:07 | -9.03075 | -56.35172 | 39935 ft | 477 kts | 330° |
| 2026-04-16 15:07 | -8.97268 | -56.38348 | 39933 ft | 477 kts | 330° |
| 2026-04-16 15:08 | -8.91425 | -56.41539 | 39933 ft | 477 kts | 330° |
| 2026-04-16 15:08 | -8.85588 | -56.44726 | 39933 ft | 477 kts | 330° |
| 2026-04-16 15:09 | -8.79742 | -56.47919 | 39931 ft | 478 kts | 330° |
| 2026-04-16 15:09 | -8.73882 | -56.51118 | 39931 ft | 478 kts | 330° |
| 2026-04-16 15:10 | -8.68061 | -56.54296 | 39932 ft | 478 kts | 330° |
| 2026-04-16 15:10 | -8.62211 | -56.57488 | 39931 ft | 478 kts | 330° |
| 2026-04-16 15:11 | -8.56365 | -56.60677 | 39940 ft | 477 kts | 330° |
| 2026-04-16 15:11 | -8.50562 | -56.63841 | 39939 ft | 477 kts | 330° |
| 2026-04-16 15:12 | -8.44717 | -56.67027 | 39944 ft | 477 kts | 330° |
| 2026-04-16 15:12 | -8.38870 | -56.70213 | 39944 ft | 477 kts | 330° |
| 2026-04-16 15:13 | -8.33020 | -56.73400 | 39944 ft | 477 kts | 330° |
| 2026-04-16 15:13 | -8.27174 | -56.76583 | 39942 ft | 477 kts | 330° |
| 2026-04-16 15:14 | -8.21332 | -56.79762 | 39946 ft | 477 kts | 330° |
| 2026-04-16 15:14 | -8.15490 | -56.82938 | 39945 ft | 477 kts | 330° |
| 2026-04-16 15:15 | -8.09683 | -56.86095 | 39945 ft | 477 kts | 330° |
| 2026-04-16 15:15 | -8.03833 | -56.89277 | 39950 ft | 477 kts | 330° |
| 2026-04-16 15:16 | -7.97985 | -56.92464 | 39941 ft | 476 kts | 329° |
| 2026-04-16 15:16 | -7.92537 | -56.96231 | 39940 ft | 476 kts | 321° |
| 2026-04-16 15:17 | -7.87369 | -57.00433 | 39941 ft | 478 kts | 320° |
| 2026-04-16 15:17 | -7.82182 | -57.04648 | 39944 ft | 478 kts | 320° |
| 2026-04-16 15:18 | -7.77001 | -57.08787 | 39939 ft | 478 kts | 321° |
| 2026-04-16 15:18 | -7.71773 | -57.12939 | 39940 ft | 478 kts | 321° |
| 2026-04-16 15:19 | -7.66554 | -57.17081 | 39937 ft | 477 kts | 321° |
| 2026-04-16 15:19 | -7.61331 | -57.21228 | 39937 ft | 479 kts | 321° |
| 2026-04-16 15:20 | -7.56088 | -57.25390 | 39937 ft | 479 kts | 321° |
| 2026-04-16 15:20 | -7.50852 | -57.29545 | 39939 ft | 479 kts | 321° |
| 2026-04-16 15:21 | -7.45649 | -57.33673 | 39939 ft | 479 kts | 321° |
| 2026-04-16 15:21 | -7.40405 | -57.37832 | 39941 ft | 479 kts | 321° |
| 2026-04-16 15:22 | -7.35163 | -57.41988 | 39940 ft | 479 kts | 320° |
| 2026-04-16 15:22 | -7.29929 | -57.46135 | 39941 ft | 478 kts | 320° |
| 2026-04-16 15:23 | -7.24726 | -57.50253 | 39936 ft | 478 kts | 321° |
| 2026-04-16 15:23 | -7.19494 | -57.54396 | 39935 ft | 478 kts | 320° |
| 2026-04-16 15:24 | -7.14267 | -57.58535 | 39937 ft | 478 kts | 320° |
| 2026-04-16 15:24 | -7.09032 | -57.62679 | 39939 ft | 478 kts | 320° |
| 2026-04-16 15:25 | -7.03803 | -57.66818 | 39932 ft | 476 kts | 320° |
| 2026-04-16 15:25 | -6.98634 | -57.70912 | 39935 ft | 475 kts | 321° |
| 2026-04-16 15:26 | -6.93436 | -57.75019 | 39937 ft | 475 kts | 321° |
| 2026-04-16 15:26 | -6.88233 | -57.79132 | 39935 ft | 475 kts | 320° |
| 2026-04-16 15:27 | -6.83030 | -57.83244 | 39933 ft | 475 kts | 321° |
| 2026-04-16 15:27 | -6.78704 | -57.86663 | 39934 ft | 475 kts | 321° |
| 2026-04-16 15:28 | -6.73510 | -57.90766 | 39938 ft | 475 kts | 321° |
| 2026-04-16 15:28 | -6.68308 | -57.94875 | 39933 ft | 476 kts | 321° |
| 2026-04-16 15:29 | -6.63119 | -57.98970 | 39936 ft | 477 kts | 321° |
| 2026-04-16 15:29 | -6.57896 | -58.03090 | 39936 ft | 477 kts | 321° |
| 2026-04-16 15:30 | -6.52673 | -58.07210 | 39934 ft | 476 kts | 321° |
| 2026-04-16 15:30 | -6.47453 | -58.11328 | 39936 ft | 477 kts | 321° |
| 2026-04-16 15:31 | -6.42236 | -58.15444 | 39934 ft | 476 kts | 321° |
| 2026-04-16 15:31 | -6.37059 | -58.19526 | 39934 ft | 476 kts | 321° |
| 2026-04-16 15:32 | -6.31841 | -58.23639 | 39931 ft | 476 kts | 321° |
| 2026-04-16 15:32 | -6.26621 | -58.27752 | 39929 ft | 476 kts | 321° |
| 2026-04-16 15:33 | -6.21396 | -58.31869 | 39935 ft | 477 kts | 321° |
| 2026-04-16 15:33 | -6.16196 | -58.35965 | 39933 ft | 477 kts | 321° |
| 2026-04-16 15:34 | -6.10974 | -58.40078 | 39930 ft | 476 kts | 321° |
| 2026-04-16 15:34 | -6.05762 | -58.44181 | 39931 ft | 476 kts | 321° |
| 2026-04-16 15:35 | -6.00546 | -58.48287 | 39933 ft | 476 kts | 321° |
| 2026-04-16 15:35 | -5.95321 | -58.52394 | 39932 ft | 475 kts | 321° |
| 2026-04-16 15:36 | -5.90109 | -58.56492 | 39932 ft | 475 kts | 321° |
| 2026-04-16 15:36 | -5.84907 | -58.60583 | 39933 ft | 475 kts | 321° |
| 2026-04-16 15:37 | -5.79714 | -58.64667 | 39934 ft | 473 kts | 321° |
| 2026-04-16 15:37 | -5.74559 | -58.68719 | 39933 ft | 473 kts | 321° |
| 2026-04-16 15:38 | -5.69368 | -58.72799 | 39930 ft | 473 kts | 321° |
| 2026-04-16 15:38 | -5.64180 | -58.76875 | 39931 ft | 473 kts | 321° |
| 2026-04-16 15:39 | -5.58999 | -58.80945 | 39933 ft | 473 kts | 321° |
| 2026-04-16 15:39 | -5.53814 | -58.85017 | 39934 ft | 473 kts | 321° |
| 2026-04-16 15:40 | -5.48647 | -58.89074 | 39846 ft | 463 kts | 321° |
| 2026-04-16 15:40 | -5.43673 | -58.92978 | 39538 ft | 454 kts | 321° |
| 2026-04-16 15:40 | -5.41153 | -58.94955 | 39260 ft | 454 kts | 321° |
| 2026-04-16 15:41 | -5.38689 | -58.96889 | 39035 ft | 455 kts | 321° |
| 2026-04-16 15:41 | -5.36197 | -58.98845 | 38807 ft | 455 kts | 321° |
| 2026-04-16 15:41 | -5.33696 | -59.00807 | 38577 ft | 456 kts | 321° |
| 2026-04-16 15:41 | -5.31187 | -59.02775 | 38318 ft | 457 kts | 321° |
| 2026-04-16 15:42 | -5.28679 | -59.04740 | 38042 ft | 459 kts | 321° |
| 2026-04-16 15:42 | -5.26155 | -59.06719 | 37786 ft | 460 kts | 321° |
| 2026-04-16 15:42 | -5.23634 | -59.08696 | 37538 ft | 461 kts | 321° |
| 2026-04-16 15:42 | -5.21108 | -59.10676 | 37288 ft | 461 kts | 321° |
| 2026-04-16 15:43 | -5.18573 | -59.12664 | 37032 ft | 463 kts | 321° |
| 2026-04-16 15:43 | -5.16036 | -59.14653 | 36788 ft | 463 kts | 321° |
| 2026-04-16 15:43 | -5.13494 | -59.16646 | 36538 ft | 463 kts | 321° |
| 2026-04-16 15:43 | -5.10945 | -59.18644 | 36286 ft | 465 kts | 321° |
| 2026-04-16 15:44 | -5.08399 | -59.20640 | 36058 ft | 466 kts | 321° |
| 2026-04-16 15:44 | -5.05834 | -59.22650 | 35828 ft | 467 kts | 321° |
| 2026-04-16 15:44 | -5.03269 | -59.24660 | 35587 ft | 468 kts | 321° |
| 2026-04-16 15:44 | -5.00737 | -59.26644 | 35353 ft | 468 kts | 321° |
| 2026-04-16 15:45 | -4.98161 | -59.28662 | 35126 ft | 469 kts | 321° |
| 2026-04-16 15:45 | -4.95587 | -59.30679 | 34932 ft | 470 kts | 321° |
| 2026-04-16 15:45 | -4.93006 | -59.32700 | 34740 ft | 470 kts | 321° |
| 2026-04-16 15:45 | -4.90431 | -59.34723 | 34556 ft | 471 kts | 321° |
| 2026-04-16 15:46 | -4.87845 | -59.36755 | 34377 ft | 472 kts | 321° |
| 2026-04-16 15:46 | -4.85257 | -59.38780 | 34246 ft | 473 kts | 321° |
| 2026-04-16 15:46 | -4.82656 | -59.40813 | 34136 ft | 474 kts | 321° |
| 2026-04-16 15:46 | -4.80046 | -59.42853 | 33999 ft | 475 kts | 321° |
| 2026-04-16 15:47 | -4.77442 | -59.44889 | 33872 ft | 474 kts | 321° |
| 2026-04-16 15:47 | -4.74838 | -59.46926 | 33736 ft | 475 kts | 321° |
| 2026-04-16 15:47 | -4.72231 | -59.48966 | 33589 ft | 475 kts | 321° |
| 2026-04-16 15:47 | -4.69629 | -59.51002 | 33453 ft | 475 kts | 321° |
| 2026-04-16 15:48 | -4.67022 | -59.53042 | 33306 ft | 476 kts | 321° |
| 2026-04-16 15:48 | -4.64409 | -59.55085 | 33169 ft | 476 kts | 321° |
| 2026-04-16 15:48 | -4.61794 | -59.57130 | 32967 ft | 477 kts | 321° |
| 2026-04-16 15:48 | -4.59204 | -59.59157 | 32751 ft | 478 kts | 322° |
| 2026-04-16 15:49 | -4.56587 | -59.61210 | 32502 ft | 478 kts | 322° |
| 2026-04-16 15:49 | -4.53961 | -59.63269 | 32254 ft | 479 kts | 322° |
| 2026-04-16 15:49 | -4.51330 | -59.65327 | 32021 ft | 480 kts | 322° |
| 2026-04-16 15:49 | -4.48699 | -59.67380 | 31781 ft | 480 kts | 322° |
| 2026-04-16 15:50 | -4.46060 | -59.69439 | 31538 ft | 481 kts | 322° |
| 2026-04-16 15:50 | -4.43413 | -59.71506 | 31093 ft | 483 kts | 322° |
| 2026-04-16 15:50 | -4.40763 | -59.73576 | 30506 ft | 483 kts | 322° |
| 2026-04-16 15:50 | -4.38105 | -59.75653 | 29936 ft | 485 kts | 322° |
| 2026-04-16 15:51 | -4.35445 | -59.77732 | 29146 ft | 486 kts | 322° |
| 2026-04-16 15:51 | -4.32774 | -59.79820 | 28476 ft | 487 kts | 322° |
| 2026-04-16 15:51 | -4.30096 | -59.81913 | 27828 ft | 488 kts | 322° |
| 2026-04-16 15:51 | -4.27413 | -59.84009 | 27171 ft | 489 kts | 322° |
| 2026-04-16 15:52 | -4.24729 | -59.86106 | 26535 ft | 490 kts | 322° |
| 2026-04-16 15:52 | -4.22037 | -59.88210 | 25879 ft | 492 kts | 322° |
| 2026-04-16 15:52 | -4.19334 | -59.90322 | 25207 ft | 493 kts | 322° |
| 2026-04-16 15:52 | -4.16654 | -59.92412 | 24567 ft | 494 kts | 323° |
| 2026-04-16 15:53 | -4.13775 | -59.94286 | 23910 ft | 492 kts | 333° |
| 2026-04-16 15:53 | -4.10643 | -59.95615 | 23157 ft | 487 kts | 341° |
| 2026-04-16 15:53 | -4.07433 | -59.96606 | 22398 ft | 481 kts | 345° |
| 2026-04-16 15:53 | -4.04208 | -59.97470 | 21698 ft | 476 kts | 346° |
| 2026-04-16 15:54 | -4.01021 | -59.98313 | 20999 ft | 471 kts | 346° |
| 2026-04-16 15:54 | -3.97875 | -59.99176 | 20331 ft | 465 kts | 345° |
| 2026-04-16 15:54 | -3.94778 | -60.00061 | 19675 ft | 460 kts | 345° |
| 2026-04-16 15:54 | -3.91723 | -60.00961 | 19024 ft | 455 kts | 344° |
| 2026-04-16 15:55 | -3.88705 | -60.01865 | 18380 ft | 449 kts | 344° |
| 2026-04-16 15:55 | -3.85729 | -60.02763 | 17678 ft | 444 kts | 344° |
| 2026-04-16 15:55 | -3.82787 | -60.03652 | 17004 ft | 438 kts | 344° |
| 2026-04-16 15:55 | -3.79876 | -60.04532 | 16364 ft | 433 kts | 344° |
| 2026-04-16 15:56 | -3.77012 | -60.05397 | 15760 ft | 427 kts | 344° |
| 2026-04-16 15:56 | -3.74182 | -60.06250 | 15173 ft | 422 kts | 344° |
| 2026-04-16 15:56 | -3.71422 | -60.07082 | 14607 ft | 417 kts | 344° |
| 2026-04-16 15:56 | -3.68653 | -60.07916 | 14041 ft | 412 kts | 344° |
| 2026-04-16 15:57 | -3.65918 | -60.08740 | 13450 ft | 406 kts | 343° |
| 2026-04-16 15:57 | -3.63218 | -60.09554 | 12842 ft | 402 kts | 344° |
| 2026-04-16 15:57 | -3.60553 | -60.10357 | 12266 ft | 399 kts | 344° |
| 2026-04-16 15:57 | -3.57912 | -60.11153 | 11730 ft | 394 kts | 344° |
| 2026-04-16 15:58 | -3.55330 | -60.11931 | 11244 ft | 389 kts | 344° |
| 2026-04-16 15:58 | -3.52765 | -60.12703 | 11023 ft | 375 kts | 345° |
| 2026-04-16 15:58 | -3.50341 | -60.13435 | 10901 ft | 352 kts | 345° |
| 2026-04-16 15:58 | -3.48069 | -60.14121 | 10790 ft | 332 kts | 345° |
| 2026-04-16 15:59 | -3.43871 | -60.15385 | 10546 ft | 302 kts | 345° |
| 2026-04-16 15:59 | -3.41867 | -60.15987 | 10255 ft | 299 kts | 345° |
| 2026-04-16 15:59 | -3.39876 | -60.16585 | 9786 ft | 297 kts | 345° |
| 2026-04-16 16:00 | -3.37894 | -60.17179 | 9253 ft | 297 kts | 345° |
| 2026-04-16 16:00 | -3.35910 | -60.17775 | 8749 ft | 297 kts | 345° |
| 2026-04-16 16:00 | -3.33926 | -60.18371 | 8262 ft | 296 kts | 345° |
| 2026-04-16 16:00 | -3.31981 | -60.18957 | 7793 ft | 292 kts | 346° |
| 2026-04-16 16:01 | -3.30059 | -60.19536 | 7369 ft | 287 kts | 345° |
| 2026-04-16 16:01 | -3.28163 | -60.20109 | 6945 ft | 283 kts | 345° |
| 2026-04-16 16:01 | -3.26273 | -60.20678 | 6520 ft | 282 kts | 346° |
| 2026-04-16 16:01 | -3.24365 | -60.21133 | 6080 ft | 282 kts | 351° |
| 2026-04-16 16:02 | -3.22440 | -60.21489 | 5677 ft | 279 kts | 352° |
| 2026-04-16 16:02 | -3.20543 | -60.21816 | 5310 ft | 274 kts | 352° |
| 2026-04-16 16:02 | -3.18702 | -60.22125 | 4961 ft | 270 kts | 353° |
| 2026-04-16 16:02 | -3.16857 | -60.22431 | 4604 ft | 268 kts | 353° |
| 2026-04-16 16:03 | -3.14999 | -60.22738 | 4206 ft | 265 kts | 354° |
| 2026-04-16 16:03 | -3.13175 | -60.22875 | 4011 ft | 261 kts | 1° |
| 2026-04-16 16:03 | -3.11390 | -60.22899 | 3676 ft | 249 kts | 2° |
| 2026-04-16 16:03 | -3.09708 | -60.22901 | 3318 ft | 235 kts | 3° |
| 2026-04-16 16:04 | -3.08139 | -60.22902 | 3037 ft | 218 kts | 3° |
| 2026-04-16 16:04 | -3.06734 | -60.22798 | 2943 ft | 188 kts | 15° |
| 2026-04-16 16:04 | -3.05573 | -60.22358 | 2789 ft | 172 kts | 34° |
| 2026-04-16 16:04 | -3.04697 | -60.21592 | 2675 ft | 168 kts | 53° |
| 2026-04-16 16:05 | -3.04143 | -60.20582 | 2594 ft | 166 kts | 72° |
| 2026-04-16 16:05 | -3.03971 | -60.19470 | 2406 ft | 157 kts | 86° |
| 2026-04-16 16:05 | -3.03939 | -60.18412 | 2138 ft | 145 kts | 88° |
| 2026-04-16 16:05 | -3.03914 | -60.17401 | 2016 ft | 144 kts | 86° |
| 2026-04-16 16:06 | -3.03892 | -60.16398 | 1969 ft | 142 kts | 89° |
| 2026-04-16 16:06 | -3.03878 | -60.15429 | 1873 ft | 140 kts | 88° |
| 2026-04-16 16:06 | -3.03865 | -60.14459 | 1879 ft | 139 kts | 88° |
| 2026-04-16 16:06 | -3.03854 | -60.13489 | 1713 ft | 138 kts | 88° |
| 2026-04-16 16:07 | -3.03843 | -60.12530 | 1528 ft | 137 kts | 90° |
| 2026-04-16 16:07 | -3.03839 | -60.11567 | 1357 ft | 138 kts | 89° |
| 2026-04-16 16:07 | -3.03835 | -60.10619 | 1153 ft | 135 kts | 90° |
| 2026-04-16 16:07 | -3.03846 | -60.09665 | 1002 ft | 137 kts | 91° |
| 2026-04-16 16:08 | -3.03849 | -60.08721 | 806 ft | 137 kts | 90° |
| 2026-04-16 16:08 | -3.03859 | -60.07755 | 644 ft | 139 kts | 88° |
| 2026-04-16 16:08 | -3.03854 | -60.06792 | 435 ft | 142 kts | 88° |
| 2026-04-16 16:08 | -3.03855 | -60.05824 | 282 ft | 130 kts | 89° |
| 2026-04-16 16:09 | -3.03859 | -60.05103 | 278 ft | 77 kts | 90° |
| 2026-04-16 16:09 | -3.03858 | -60.04625 | 280 ft | 61 kts | 90° |
| 2026-04-16 16:09 | -3.03860 | -60.04238 | 280 ft | 51 kts | 90° |
| 2026-04-16 16:09 | -3.03861 | -60.03926 | 279 ft | 35 kts | 90° |
| 2026-04-16 16:10 | -3.03828 | -60.03773 | 279 ft | 12 kts | 39° |
| 2026-04-16 16:10 | -3.03748 | -60.03771 | 279 ft | 13 kts | 339° |
| 2026-04-16 16:10 | -3.03681 | -60.03844 | 279 ft | 16 kts | 294° |
| 2026-04-16 16:10 | -3.03645 | -60.03962 | 279 ft | 18 kts | 283° |
| 2026-04-16 16:11 | -3.03618 | -60.04080 | 281 ft | 17 kts | 284° |
| 2026-04-16 16:11 | -3.03590 | -60.04187 | 282 ft | 15 kts | 288° |
| 2026-04-16 16:11 | -3.03541 | -60.04271 | 279 ft | 13 kts | 306° |
| 2026-04-16 16:11 | -3.03480 | -60.04334 | 279 ft | 14 kts | 321° |
| 2026-04-16 16:12 | -3.03418 | -60.04366 | 279 ft | 16 kts | 339° |
| 2026-04-16 16:12 | -3.03310 | -60.04343 | 279 ft | 10 kts | 52° |
| 2026-04-16 16:12 | -3.03284 | -60.04275 | 279 ft | 11 kts | 73° |
| 2026-04-16 16:12 | -3.03264 | -60.04197 | 279 ft | 11 kts | 76° |
| 2026-04-16 16:13 | -3.03252 | -60.04150 | 279 ft | 10 kts | 75° |
| 2026-04-16 16:13 | -3.03233 | -60.04084 | 279 ft | 9 kts | 75° |
| 2026-04-16 16:13 | -3.03220 | -60.04035 | 279 ft | 4 kts | 75° |
| 2026-04-16 16:13 | -3.03217 | -60.04022 | 279 ft | 2 kts | 75° |
| 2026-04-16 16:14 | -3.03205 | -60.03998 | 279 ft | 2 kts | 47° |
| 2026-04-16 16:14 | -3.03183 | -60.03994 | 279 ft | 5 kts | 1° |
| 2026-04-16 16:14 | -3.03155 | -60.03996 | 279 ft | 3 kts | 350° |
| 2026-04-16 16:14 | -3.03137 | -60.04000 | 282 ft | 0 kts | 347° |
| 2026-04-16 16:15 | -3.03137 | -60.04001 | 282 ft | 0 kts | 347° |